Time;durP1;ratioP1;P1;durP2;ratioP2;P2;SDS_P1;SDS_P2;PMS_P1;PMS_P2;Temp;Humidity;BMP_temperature;BMP_pressure;BME280_temperature;BME280_humidity;BME280_pressure;Samples;Min_cycle;Max_cycle;Signal;HPM_P1;HPM_P2
2023/05/11 00:01:27;;;;;;;22.02;14.35;;;;;;;;;;4978525;28;20051;-79
2023/05/11 00:03:54;;;;;;;29.02;14.85;;;;;;;;;;4979532;28;20051;-79
2023/05/11 00:06:21;;;;;;;24.83;14.52;;;;;;;;;;4975391;28;20077;-80
2023/05/11 00:08:50;;;;;;;25.85;14.32;;;;;;;;;;4988178;28;20047;-80
2023/05/11 00:11:17;;;;;;;24.77;15.20;;;;;;;;;;4987456;28;20149;-81
2023/05/11 00:13:45;;;;;;;32.55;15.48;;;;;;;;;;4972916;28;20388;-80
2023/05/11 00:16:13;;;;;;;24.80;14.60;;;;;;;;;;4971553;28;20407;-80
2023/05/11 00:18:40;;;;;;;25.63;14.77;;;;;;;;;;4955703;28;20046;-80
2023/05/11 00:21:07;;;;;;;27.20;16.33;;;;;;;;;;4988121;28;20281;-80
2023/05/11 00:23:33;;;;;;;23.73;15.05;;;;;;;;;;4971994;28;20046;-80
2023/05/11 00:26:00;;;;;;;27.35;15.70;;;;;;;;;;4956991;28;20046;-79
2023/05/11 00:28:26;;;;;;;24.00;14.13;;;;;;;;;;4973004;28;20058;-80
2023/05/11 00:30:57;;;;;;;23.33;14.52;;;;;;;;;;4965539;28;20031;-80
2023/05/11 00:33:23;;;;;;;25.90;15.23;;;;;;;;;;4953744;29;20062;-80
2023/05/11 00:35:50;;;;;;;23.35;14.25;;;;;;;;;;4976473;28;20043;-80
2023/05/11 00:38:17;;;;;;;26.88;14.98;;;;;;;;;;4952987;28;20055;-81
2023/05/11 00:40:44;;;;;;;27.92;16.30;;;;;;;;;;4951853;28;20063;-80
2023/05/11 00:43:13;;;;;;;23.48;14.30;;;;;;;;;;4954579;28;20077;-80
2023/05/11 00:45:40;;;;;;;24.35;15.02;;;;;;;;;;4951636;28;20032;-79
2023/05/11 00:48:07;;;;;;;23.17;14.55;;;;;;;;;;4955722;28;20055;-81
2023/05/11 00:50:34;;;;;;;28.02;15.93;;;;;;;;;;4967060;28;20106;-80
2023/05/11 00:53:04;;;;;;;24.92;15.20;;;;;;;;;;4968998;28;20043;-81
2023/05/11 00:55:30;;;;;;;23.95;14.45;;;;;;;;;;4976601;28;20067;-81
2023/05/11 00:58:01;;;;;;;26.63;15.10;;;;;;;;;;4957141;29;20051;-81
2023/05/11 01:00:29;;;;;;;23.88;15.23;;;;;;;;;;4939875;29;20126;-81
2023/05/11 01:02:56;;;;;;;26.00;15.20;;;;;;;;;;4967600;28;20071;-81
2023/05/11 01:05:29;;;;;;;25.35;15.32;;;;;;;;;;4975250;28;20507;-81
2023/05/11 01:08:07;;;;;;;24.52;15.23;;;;;;;;;;4991127;28;20066;-81
2023/05/11 01:10:37;;;;;;;25.27;14.82;;;;;;;;;;4976345;28;20143;-81
2023/05/11 01:13:09;;;;;;;23.70;15.10;;;;;;;;;;4975732;28;20051;-81
2023/05/11 01:15:41;;;;;;;22.95;14.40;;;;;;;;;;4959086;28;20051;-82
2023/05/11 01:18:26;;;;;;;24.85;15.27;;;;;;;;;;4991486;28;20043;-81
2023/05/11 01:20:57;;;;;;;25.48;15.48;;;;;;;;;;4992333;28;20655;-82
2023/05/11 01:23:24;;;;;;;24.90;15.27;;;;;;;;;;4976182;28;20073;-80
2023/05/11 01:26:10;;;;;;;24.23;15.30;;;;;;;;;;4992557;28;20122;-80
2023/05/11 01:28:56;;;;;;;26.83;15.45;;;;;;;;;;4976801;28;20047;-80
2023/05/11 01:31:24;;;;;;;30.23;15.95;;;;;;;;;;4991845;28;20087;-82
2023/05/11 01:33:57;;;;;;;25.90;15.85;;;;;;;;;;4991096;28;20089;-80
2023/05/11 01:36:26;;;;;;;24.98;15.90;;;;;;;;;;4974681;28;20047;-80
2023/05/11 01:38:53;;;;;;;27.27;15.02;;;;;;;;;;4958058;28;20090;-80
2023/05/11 01:41:21;;;;;;;27.33;15.55;;;;;;;;;;4962698;28;20058;-79
2023/05/11 01:43:52;;;;;;;24.38;15.35;;;;;;;;;;4963223;28;20046;-81
2023/05/11 01:46:20;;;;;;;30.40;15.82;;;;;;;;;;4956172;28;20051;-80
2023/05/11 01:48:49;;;;;;;24.55;15.38;;;;;;;;;;4954410;28;20050;-80
2023/05/11 01:51:17;;;;;;;24.48;15.05;;;;;;;;;;4955387;28;20141;-81
2023/05/11 01:53:45;;;;;;;24.90;14.15;;;;;;;;;;4956143;28;20711;-80
2023/05/11 01:56:12;;;;;;;25.67;14.70;;;;;;;;;;4955603;28;20067;-80
2023/05/11 01:58:40;;;;;;;26.25;14.75;;;;;;;;;;4972099;28;20066;-81
2023/05/11 02:01:09;;;;;;;23.23;14.85;;;;;;;;;;4943761;28;20053;-81
2023/05/11 02:03:37;;;;;;;24.05;14.38;;;;;;;;;;4973150;28;20050;-79
2023/05/11 02:06:04;;;;;;;24.42;14.95;;;;;;;;;;4975242;28;20085;-79
2023/05/11 02:08:33;;;;;;;23.27;15.73;;;;;;;;;;5005001;28;20107;-80
2023/05/11 02:11:01;;;;;;;26.10;14.50;;;;;;;;;;4957703;28;20042;-80
2023/05/11 02:13:29;;;;;;;24.67;14.60;;;;;;;;;;4987322;28;20062;-80
2023/05/11 02:15:57;;;;;;;24.27;14.38;;;;;;;;;;4985940;28;20094;-79
2023/05/11 02:18:24;;;;;;;25.05;16.05;;;;;;;;;;4954601;28;20047;-81
2023/05/11 02:20:57;;;;;;;23.77;14.60;;;;;;;;;;4955544;28;20467;-78
2023/05/11 02:23:25;;;;;;;24.88;15.85;;;;;;;;;;4987916;28;20047;-79
2023/05/11 02:25:53;;;;;;;21.73;14.63;;;;;;;;;;4988186;28;20039;-80
2023/05/11 02:28:20;;;;;;;25.42;15.20;;;;;;;;;;4988176;28;20127;-79
2023/05/11 02:30:51;;;;;;;23.98;15.07;;;;;;;;;;4955538;28;20073;-80
2023/05/11 02:33:20;;;;;;;23.77;15.15;;;;;;;;;;4954387;28;20081;-81
2023/05/11 02:35:48;;;;;;;22.25;14.85;;;;;;;;;;4955891;28;20047;-80
2023/05/11 02:38:16;;;;;;;23.38;15.57;;;;;;;;;;4952605;28;20046;-80
2023/05/11 02:40:46;;;;;;;23.95;14.70;;;;;;;;;;4953277;28;20043;-80
2023/05/11 02:43:17;;;;;;;25.63;15.82;;;;;;;;;;4952098;28;20047;-80
2023/05/11 02:45:51;;;;;;;25.75;16.08;;;;;;;;;;4951925;28;20039;-80
2023/05/11 02:48:26;;;;;;;23.52;15.48;;;;;;;;;;4952905;28;20126;-81
2023/05/11 02:50:54;;;;;;;27.92;16.98;;;;;;;;;;4937454;28;20054;-81
2023/05/11 02:53:24;;;;;;;30.25;17.27;;;;;;;;;;4952653;28;20113;-80
2023/05/11 02:55:53;;;;;;;26.23;16.40;;;;;;;;;;4968659;28;20050;-80
2023/05/11 02:58:20;;;;;;;29.90;17.48;;;;;;;;;;4952593;28;20134;-80
2023/05/11 03:00:55;;;;;;;27.63;17.30;;;;;;;;;;4963812;28;20055;-80
2023/05/11 03:03:23;;;;;;;25.70;16.65;;;;;;;;;;4965251;28;20043;-80
2023/05/11 03:05:50;;;;;;;30.42;17.13;;;;;;;;;;4950248;28;20498;-79
2023/05/11 03:08:16;;;;;;;29.63;17.33;;;;;;;;;;4935735;28;20418;-80
2023/05/11 03:10:43;;;;;;;28.00;17.33;;;;;;;;;;4951707;28;20427;-82
2023/05/11 03:13:10;;;;;;;32.60;18.08;;;;;;;;;;4952888;28;20039;-81
2023/05/11 03:15:37;;;;;;;30.95;17.30;;;;;;;;;;4952784;28;20147;-80
2023/05/11 03:18:04;;;;;;;27.45;16.88;;;;;;;;;;4952126;28;20043;-81
2023/05/11 03:20:34;;;;;;;27.33;17.13;;;;;;;;;;4952354;28;20459;-80
2023/05/11 03:23:01;;;;;;;26.50;16.73;;;;;;;;;;4952325;28;20051;-81
2023/05/11 03:25:28;;;;;;;28.20;16.73;;;;;;;;;;4952138;28;20193;-81
2023/05/11 03:27:56;;;;;;;25.25;15.57;;;;;;;;;;4936293;28;20163;-80
2023/05/11 03:30:23;;;;;;;26.42;16.27;;;;;;;;;;4951829;28;20500;-79
2023/05/11 03:32:53;;;;;;;29.70;17.00;;;;;;;;;;4969361;28;20039;-80
2023/05/11 03:35:21;;;;;;;25.92;16.30;;;;;;;;;;4974798;28;20051;-79
2023/05/11 03:37:49;;;;;;;27.98;16.05;;;;;;;;;;4965816;28;20035;-78
2023/05/11 03:40:18;;;;;;;27.30;17.10;;;;;;;;;;4980670;28;20548;-77
2023/05/11 03:42:51;;;;;;;26.02;16.90;;;;;;;;;;4963561;28;20103;-79
2023/05/11 03:45:18;;;;;;;26.50;16.77;;;;;;;;;;4969148;28;20126;-79
2023/05/11 03:47:47;;;;;;;28.80;16.85;;;;;;;;;;4971191;28;20232;-79
2023/05/11 03:50:14;;;;;;;23.08;15.32;;;;;;;;;;4967616;28;20075;-79
2023/05/11 03:52:41;;;;;;;23.73;15.25;;;;;;;;;;4967975;28;20039;-79
2023/05/11 03:55:08;;;;;;;25.27;15.10;;;;;;;;;;4952180;28;20546;-80
2023/05/11 03:57:35;;;;;;;27.05;15.73;;;;;;;;;;4953639;28;20090;-81
2023/05/11 04:00:02;;;;;;;23.92;15.55;;;;;;;;;;4968012;28;20308;-81
2023/05/11 04:02:29;;;;;;;24.98;15.25;;;;;;;;;;4962509;28;20546;-79
2023/05/11 04:04:56;;;;;;;23.92;15.13;;;;;;;;;;4955913;28;20058;-80
2023/05/11 04:07:23;;;;;;;25.73;15.77;;;;;;;;;;4956766;28;20111;-81
2023/05/11 04:09:50;;;;;;;25.20;15.95;;;;;;;;;;4988487;28;20066;-80
2023/05/11 04:12:16;;;;;;;27.95;17.33;;;;;;;;;;4971367;28;20043;-80
2023/05/11 04:14:43;;;;;;;26.92;17.20;;;;;;;;;;4971086;28;20039;-79
2023/05/11 04:17:10;;;;;;;28.83;16.48;;;;;;;;;;4968516;28;20047;-80
2023/05/11 04:19:36;;;;;;;31.85;18.85;;;;;;;;;;4951848;28;20108;-82
2023/05/11 04:22:03;;;;;;;30.52;17.70;;;;;;;;;;4946968;28;20058;-78
2023/05/11 04:24:29;;;;;;;28.95;17.85;;;;;;;;;;4954924;28;20051;-81
2023/05/11 04:26:56;;;;;;;32.47;18.10;;;;;;;;;;4955864;28;20081;-82
2023/05/11 04:29:23;;;;;;;30.27;18.95;;;;;;;;;;4955813;28;20083;-79
2023/05/11 04:31:51;;;;;;;32.35;18.98;;;;;;;;;;4948280;28;20058;-79
2023/05/11 04:34:18;;;;;;;31.05;18.90;;;;;;;;;;4976266;28;20095;-82
2023/05/11 04:36:48;;;;;;;32.47;17.48;;;;;;;;;;4956667;28;20054;-79
2023/05/11 04:39:16;;;;;;;35.03;19.33;;;;;;;;;;4969571;28;20122;-79
2023/05/11 04:41:42;;;;;;;27.50;17.77;;;;;;;;;;4937098;28;20039;-82
2023/05/11 04:44:09;;;;;;;30.80;19.17;;;;;;;;;;4933749;28;20067;-82
2023/05/11 04:46:39;;;;;;;30.27;17.38;;;;;;;;;;4961919;28;20926;-81
2023/05/11 04:49:06;;;;;;;29.55;17.88;;;;;;;;;;4954615;28;20043;-82
2023/05/11 04:51:35;;;;;;;31.88;18.35;;;;;;;;;;4930156;28;20059;-83
2023/05/11 04:54:02;;;;;;;32.70;17.10;;;;;;;;;;4960503;28;20051;-81
2023/05/11 04:56:29;;;;;;;27.23;17.08;;;;;;;;;;4952625;28;20039;-81
2023/05/11 04:58:56;;;;;;;28.85;17.63;;;;;;;;;;4968433;28;20586;-79
2023/05/11 05:01:22;;;;;;;23.67;15.18;;;;;;;;;;4953864;28;20475;-79
2023/05/11 05:03:49;;;;;;;23.63;14.93;;;;;;;;;;4949869;28;20129;-80
2023/05/11 05:06:16;;;;;;;23.35;15.68;;;;;;;;;;4968654;28;20095;-81
2023/05/11 05:08:42;;;;;;;23.98;14.82;;;;;;;;;;4954606;28;20039;-81
2023/05/11 05:11:10;;;;;;;24.42;14.80;;;;;;;;;;4952187;28;20218;-81
2023/05/11 05:13:36;;;;;;;27.60;15.23;;;;;;;;;;4951136;28;20467;-80
2023/05/11 05:16:03;;;;;;;21.23;13.35;;;;;;;;;;4956766;28;20051;-81
2023/05/11 05:18:29;;;;;;;22.17;13.32;;;;;;;;;;4944125;28;20066;-79
2023/05/11 05:20:56;;;;;;;23.58;12.95;;;;;;;;;;4984704;28;20043;-80
2023/05/11 05:23:23;;;;;;;22.70;13.45;;;;;;;;;;4954618;29;20122;-82
2023/05/11 05:25:50;;;;;;;19.02;12.65;;;;;;;;;;4952138;28;20488;-82
2023/05/11 05:28:17;;;;;;;17.38;11.27;;;;;;;;;;4936749;28;20039;-82
2023/05/11 05:30:44;;;;;;;20.55;12.77;;;;;;;;;;4952076;28;20118;-80
2023/05/11 05:33:12;;;;;;;19.90;11.93;;;;;;;;;;4945781;28;20101;-81
2023/05/11 05:35:41;;;;;;;18.23;11.13;;;;;;;;;;4958455;28;20456;-81
2023/05/11 05:38:07;;;;;;;19.63;12.23;;;;;;;;;;4948955;28;20613;-83
2023/05/11 05:40:36;;;;;;;21.15;12.20;;;;;;;;;;4961068;28;20098;-82
2023/05/11 05:43:03;;;;;;;25.27;12.40;;;;;;;;;;4953300;28;20046;-82
2023/05/11 05:45:30;;;;;;;19.98;12.13;;;;;;;;;;4939668;28;20062;-82
2023/05/11 05:47:59;;;;;;;18.65;12.20;;;;;;;;;;4969410;28;20051;-81
2023/05/11 05:50:26;;;;;;;19.95;12.10;;;;;;;;;;4951841;28;20048;-82
2023/05/11 05:52:53;;;;;;;24.45;12.57;;;;;;;;;;4935959;28;20044;-82
2023/05/11 05:55:22;;;;;;;18.48;12.32;;;;;;;;;;4952600;28;20048;-82
2023/05/11 05:57:50;;;;;;;21.88;12.25;;;;;;;;;;4979747;28;20063;-81
2023/05/11 06:00:16;;;;;;;19.65;11.85;;;;;;;;;;4957136;28;20047;-80
2023/05/11 06:02:51;;;;;;;19.23;13.20;;;;;;;;;;4981480;28;20054;-82
2023/05/11 06:05:23;;;;;;;21.33;12.85;;;;;;;;;;4985583;28;20061;-81
2023/05/11 06:07:50;;;;;;;23.60;13.77;;;;;;;;;;4968896;28;20062;-81
2023/05/11 06:10:35;;;;;;;22.08;13.93;;;;;;;;;;4961266;28;20047;-82
2023/05/11 06:13:01;;;;;;;22.67;13.93;;;;;;;;;;5007247;28;20051;-80
2023/05/11 06:15:28;;;;;;;22.02;13.07;;;;;;;;;;4984680;28;20051;-82
2023/05/11 06:18:00;;;;;;;19.35;12.68;;;;;;;;;;4974016;28;20067;-78
2023/05/11 06:20:27;;;;;;;19.23;12.82;;;;;;;;;;4986730;28;20549;-80
2023/05/11 06:22:54;;;;;;;23.35;14.02;;;;;;;;;;4961632;28;20053;-81
2023/05/11 06:25:21;;;;;;;19.95;13.25;;;;;;;;;;4964067;28;20464;-82
2023/05/11 06:27:48;;;;;;;22.13;13.05;;;;;;;;;;4961163;28;20078;-83
2023/05/11 06:30:15;;;;;;;22.20;13.85;;;;;;;;;;4956630;28;20516;-84
2023/05/11 06:32:46;;;;;;;22.38;14.07;;;;;;;;;;4953089;28;20039;-81
2023/05/11 06:35:15;;;;;;;19.65;13.30;;;;;;;;;;4951517;28;20059;-82
2023/05/11 06:37:43;;;;;;;22.83;13.57;;;;;;;;;;4949645;28;20044;-81
2023/05/11 06:40:10;;;;;;;23.50;14.18;;;;;;;;;;4965220;28;20048;-83
2023/05/11 06:42:37;;;;;;;24.27;13.85;;;;;;;;;;4949815;28;20147;-82
2023/05/11 06:45:07;;;;;;;22.17;14.43;;;;;;;;;;4950152;28;20043;-83
2023/05/11 06:47:33;;;;;;;23.60;13.55;;;;;;;;;;4967792;28;20050;-82
2023/05/11 06:50:00;;;;;;;25.77;14.55;;;;;;;;;;4951095;28;20063;-82
2023/05/11 06:52:27;;;;;;;22.27;12.77;;;;;;;;;;4963087;28;20056;-82
2023/05/11 06:54:53;;;;;;;23.27;13.35;;;;;;;;;;4947673;28;20051;-83
2023/05/11 06:57:20;;;;;;;20.92;13.93;;;;;;;;;;4934109;28;20103;-82
2023/05/11 06:59:47;;;;;;;27.65;14.98;;;;;;;;;;4934388;28;20123;-85
2023/05/11 07:02:13;;;;;;;18.50;12.30;;;;;;;;;;4976543;28;20051;-84
2023/05/11 07:04:40;;;;;;;19.02;11.43;;;;;;;;;;4984098;28;20106;-81
2023/05/11 07:07:07;;;;;;;30.52;16.60;;;;;;;;;;4980662;28;20435;-83
2023/05/11 07:09:34;;;;;;;19.02;12.68;;;;;;;;;;4956212;28;20046;-80
2023/05/11 07:12:01;;;;;;;19.38;11.63;;;;;;;;;;4988149;28;20069;-82
2023/05/11 07:14:28;;;;;;;24.15;12.77;;;;;;;;;;4990921;28;20061;-85
2023/05/11 07:16:54;;;;;;;22.63;11.48;;;;;;;;;;4954131;28;20056;-84
2023/05/11 07:19:21;;;;;;;22.50;11.60;;;;;;;;;;4953958;28;20392;-82
2023/05/11 07:21:48;;;;;;;21.83;10.55;;;;;;;;;;4942137;28;20047;-82
2023/05/11 07:24:14;;;;;;;15.90;8.60;;;;;;;;;;4951030;28;20054;-78
2023/05/11 07:26:41;;;;;;;16.00;8.60;;;;;;;;;;4968246;28;20477;-82
2023/05/11 07:29:07;;;;;;;30.50;14.15;;;;;;;;;;4979006;28;20096;-84
2023/05/11 07:31:35;;;;;;;13.02;7.82;;;;;;;;;;4933880;29;20067;-78
2023/05/11 07:34:03;;;;;;;12.57;7.68;;;;;;;;;;4964404;28;20127;-81
2023/05/11 07:36:29;;;;;;;11.90;7.13;;;;;;;;;;4939765;28;20098;-82
2023/05/11 07:38:58;;;;;;;24.38;10.73;;;;;;;;;;4952119;28;20043;-78
2023/05/11 07:41:27;;;;;;;11.68;7.10;;;;;;;;;;4965413;28;20210;-84
2023/05/11 07:43:53;;;;;;;27.98;13.15;;;;;;;;;;4934081;28;20058;-77
2023/05/11 07:46:20;;;;;;;12.15;8.18;;;;;;;;;;4934905;28;20070;-79
2023/05/11 07:48:47;;;;;;;11.02;7.88;;;;;;;;;;4935290;28;20389;-80
2023/05/11 07:51:13;;;;;;;13.13;9.18;;;;;;;;;;4951071;28;20039;-82
2023/05/11 07:53:40;;;;;;;10.95;7.93;;;;;;;;;;4952500;29;20047;-80
2023/05/11 07:56:07;;;;;;;10.63;6.50;;;;;;;;;;4943736;28;20515;-81
2023/05/11 07:58:33;;;;;;;11.32;7.00;;;;;;;;;;4968060;28;20560;-82
2023/05/11 08:01:00;;;;;;;12.95;7.60;;;;;;;;;;4962419;28;20051;-79
2023/05/11 08:03:26;;;;;;;11.65;7.10;;;;;;;;;;4985324;28;20467;-82
2023/05/11 08:05:53;;;;;;;10.60;7.22;;;;;;;;;;4973348;28;20050;-85
2023/05/11 08:08:20;;;;;;;13.60;6.97;;;;;;;;;;4956657;28;20050;-84
2023/05/11 08:10:48;;;;;;;10.70;6.20;;;;;;;;;;4971509;28;20415;-79
2023/05/11 08:13:15;;;;;;;8.38;6.20;;;;;;;;;;4957211;28;20130;-82
2023/05/11 08:15:42;;;;;;;12.27;7.00;;;;;;;;;;4956624;28;20093;-81
2023/05/11 08:18:10;;;;;;;12.63;7.18;;;;;;;;;;4972941;28;20526;-80
2023/05/11 08:20:37;;;;;;;8.90;5.93;;;;;;;;;;4970972;28;20070;-82
2023/05/11 08:23:04;;;;;;;6.50;4.30;;;;;;;;;;4972475;28;20047;-78
2023/05/11 08:25:31;;;;;;;7.93;4.95;;;;;;;;;;4954544;28;20130;-78
2023/05/11 08:27:57;;;;;;;9.90;6.47;;;;;;;;;;4952292;28;20047;-79
2023/05/11 08:30:26;;;;;;;13.77;8.48;;;;;;;;;;4972702;28;20134;-79
2023/05/11 08:32:53;;;;;;;7.57;5.15;;;;;;;;;;4985044;28;20111;-80
2023/05/11 08:35:24;;;;;;;10.02;6.40;;;;;;;;;;4954032;28;20055;-82
2023/05/11 08:37:51;;;;;;;10.75;6.28;;;;;;;;;;4953934;28;20047;-84
2023/05/11 08:40:18;;;;;;;10.20;5.72;;;;;;;;;;4951616;29;20043;-81
2023/05/11 08:42:45;;;;;;;6.05;4.50;;;;;;;;;;4952788;28;20054;-83
2023/05/11 08:45:12;;;;;;;6.57;3.78;;;;;;;;;;4971406;28;20043;-79
2023/05/11 08:47:39;;;;;;;5.00;3.65;;;;;;;;;;4960666;28;20058;-83
2023/05/11 08:50:06;;;;;;;6.28;4.72;;;;;;;;;;4949757;28;20039;-83
2023/05/11 08:52:33;;;;;;;5.32;3.67;;;;;;;;;;4970594;28;20059;-77
2023/05/11 08:55:00;;;;;;;6.78;4.00;;;;;;;;;;4959378;28;20051;-79
2023/05/11 08:57:28;;;;;;;9.77;3.80;;;;;;;;;;4952330;28;20051;-83
2023/05/11 08:59:55;;;;;;;6.82;3.80;;;;;;;;;;4950860;28;20039;-79
2023/05/11 09:02:22;;;;;;;6.88;3.80;;;;;;;;;;4955411;28;20074;-78
2023/05/11 09:04:49;;;;;;;5.38;3.42;;;;;;;;;;4960050;28;20043;-83
2023/05/11 09:07:17;;;;;;;5.43;3.08;;;;;;;;;;4958030;28;20047;-81
2023/05/11 09:09:45;;;;;;;6.25;3.00;;;;;;;;;;4940118;28;20066;-78
2023/05/11 09:12:12;;;;;;;5.70;3.45;;;;;;;;;;4940986;28;20368;-78
2023/05/11 09:14:38;;;;;;;4.90;3.45;;;;;;;;;;4964473;28;20071;-79
2023/05/11 09:17:05;;;;;;;3.53;3.05;;;;;;;;;;4954084;28;20043;-79
2023/05/11 09:19:34;;;;;;;5.07;3.40;;;;;;;;;;4950124;28;20055;-82
2023/05/11 09:22:04;;;;;;;5.05;3.42;;;;;;;;;;4954354;28;20102;-83
2023/05/11 09:24:31;;;;;;;5.85;3.83;;;;;;;;;;4932705;28;20047;-83
2023/05/11 09:27:07;;;;;;;5.13;3.58;;;;;;;;;;4939632;28;20066;-82
2023/05/11 09:29:34;;;;;;;5.60;3.50;;;;;;;;;;4951363;28;20468;-80
2023/05/11 09:32:01;;;;;;;6.85;3.78;;;;;;;;;;4954536;28;20069;-82
2023/05/11 09:34:28;;;;;;;6.32;3.60;;;;;;;;;;4957216;28;20436;-78
2023/05/11 09:36:55;;;;;;;4.68;4.10;;;;;;;;;;4987834;28;20054;-80
2023/05/11 09:39:33;;;;;;;6.13;4.10;;;;;;;;;;4972603;28;20090;-82
2023/05/11 09:42:15;;;;;;;5.13;3.10;;;;;;;;;;4955301;28;20050;-79
2023/05/11 09:44:46;;;;;;;6.57;3.60;;;;;;;;;;4964944;28;20039;-79
2023/05/11 09:47:12;;;;;;;4.72;3.47;;;;;;;;;;4969463;28;20143;-82
2023/05/11 09:49:42;;;;;;;7.25;3.70;;;;;;;;;;4974737;28;20039;-80
2023/05/11 09:52:09;;;;;;;9.95;4.07;;;;;;;;;;4975599;28;20046;-81
2023/05/11 09:54:43;;;;;;;7.75;3.63;;;;;;;;;;4975580;28;20041;-80
2023/05/11 09:57:30;;;;;;;6.10;3.47;;;;;;;;;;4983847;28;20142;-82
2023/05/11 09:59:57;;;;;;;6.07;3.53;;;;;;;;;;4967384;28;20051;-79
2023/05/11 10:02:25;;;;;;;8.10;3.67;;;;;;;;;;4969632;28;20093;-82
2023/05/11 10:04:53;;;;;;;7.60;3.50;;;;;;;;;;4973971;28;20043;-81
2023/05/11 10:07:26;;;;;;;4.30;3.35;;;;;;;;;;4973555;28;20039;-79
2023/05/11 10:09:52;;;;;;;4.90;3.22;;;;;;;;;;4987144;28;20047;-81
2023/05/11 10:12:20;;;;;;;7.25;3.33;;;;;;;;;;4959009;28;20105;-83
2023/05/11 10:14:50;;;;;;;8.60;3.17;;;;;;;;;;4983286;28;20051;-80
2023/05/11 10:17:17;;;;;;;4.03;2.92;;;;;;;;;;4983305;28;20062;-77
2023/05/11 10:19:44;;;;;;;8.05;2.80;;;;;;;;;;4965039;28;20055;-80
2023/05/11 10:22:11;;;;;;;4.78;2.80;;;;;;;;;;4989327;28;20393;-79
2023/05/11 10:24:38;;;;;;;4.88;2.85;;;;;;;;;;4978548;28;20052;-80
2023/05/11 10:27:05;;;;;;;4.25;3.08;;;;;;;;;;4981942;28;20055;-81
2023/05/11 10:29:32;;;;;;;5.95;2.55;;;;;;;;;;4963440;28;20052;-82
2023/05/11 10:32:00;;;;;;;6.55;3.28;;;;;;;;;;4934977;29;20146;-80
2023/05/11 10:34:27;;;;;;;5.15;2.97;;;;;;;;;;4961396;28;20157;-79
2023/05/11 10:36:56;;;;;;;7.57;2.92;;;;;;;;;;4974686;28;20054;-83
2023/05/11 10:39:23;;;;;;;8.27;2.63;;;;;;;;;;4953367;28;20043;-82
2023/05/11 10:41:49;;;;;;;3.22;2.28;;;;;;;;;;4937648;28;20047;-83
2023/05/11 10:44:39;;;;;;;5.05;2.72;;;;;;;;;;4952257;28;20047;-78
2023/05/11 10:47:14;;;;;;;5.50;2.40;;;;;;;;;;4949422;28;20047;-79
2023/05/11 10:50:01;;;;;;;5.53;2.40;;;;;;;;;;4978129;28;20052;-82
2023/05/11 10:52:48;;;;;;;2.95;2.50;;;;;;;;;;4954131;28;20140;-80
2023/05/11 10:55:34;;;;;;;3.67;2.45;;;;;;;;;;4954477;28;20052;-81
2023/05/11 10:58:12;;;;;;;10.80;2.70;;;;;;;;;;4961926;28;20047;-80
2023/05/11 11:00:42;;;;;;;5.32;2.55;;;;;;;;;;4946786;28;20058;-81
2023/05/11 11:03:10;;;;;;;2.75;2.10;;;;;;;;;;4971076;28;20514;-81
2023/05/11 11:05:39;;;;;;;3.97;2.10;;;;;;;;;;4937520;28;20051;-79
2023/05/11 11:08:08;;;;;;;4.13;2.35;;;;;;;;;;4937579;28;20062;-84
2023/05/11 11:10:36;;;;;;;4.88;2.22;;;;;;;;;;4937259;28;20760;-80
2023/05/11 11:13:07;;;;;;;8.80;2.42;;;;;;;;;;4954098;28;20543;-83
2023/05/11 11:16:07;;;;;;;2.60;2.00;;;;;;;;;;4955206;28;20039;-80
2023/05/11 11:18:33;;;;;;;4.20;2.10;;;;;;;;;;4927262;29;20070;-79
2023/05/11 11:21:00;;;;;;;3.88;2.28;;;;;;;;;;4966588;28;20055;-82
2023/05/11 11:23:42;;;;;;;3.65;2.10;;;;;;;;;;4967171;28;20051;-80
2023/05/11 11:26:10;;;;;;;8.65;2.28;;;;;;;;;;4956952;28;20053;-81
2023/05/11 11:28:52;;;;;;;4.47;2.40;;;;;;;;;;4942152;28;20492;-80
2023/05/11 11:31:29;;;;;;;3.58;2.45;;;;;;;;;;4945179;28;20082;-81
2023/05/11 11:33:57;;;;;;;3.35;2.35;;;;;;;;;;4950821;28;21037;-80
2023/05/11 11:36:43;;;;;;;3.67;2.08;;;;;;;;;;4971911;28;20051;-80
2023/05/11 11:39:09;;;;;;;4.43;2.10;;;;;;;;;;4977072;28;20047;-80
2023/05/11 11:41:36;;;;;;;9.07;2.10;;;;;;;;;;4933904;29;20359;-82
2023/05/11 11:44:03;;;;;;;5.97;2.20;;;;;;;;;;4967037;28;20528;-81
2023/05/11 11:46:30;;;;;;;3.45;2.00;;;;;;;;;;4978815;28;20131;-79
2023/05/11 11:49:07;;;;;;;4.13;2.30;;;;;;;;;;4953348;28;20079;-81
2023/05/11 11:51:34;;;;;;;7.05;2.30;;;;;;;;;;4950416;29;20111;-82
2023/05/11 11:54:00;;;;;;;3.30;2.22;;;;;;;;;;4941460;28;20074;-81
2023/05/11 11:56:27;;;;;;;5.18;2.25;;;;;;;;;;4954991;28;20504;-81
2023/05/11 11:59:01;;;;;;;6.82;2.20;;;;;;;;;;4977069;28;20138;-81
2023/05/11 12:01:29;;;;;;;7.22;2.13;;;;;;;;;;4973157;28;20058;-82
2023/05/11 12:03:56;;;;;;;2.88;1.73;;;;;;;;;;4960956;28;20114;-82
2023/05/11 12:06:24;;;;;;;4.05;1.95;;;;;;;;;;4968023;28;20130;-81
2023/05/11 12:08:52;;;;;;;7.32;2.13;;;;;;;;;;4967545;28;20050;-80
2023/05/11 12:11:20;;;;;;;7.88;1.83;;;;;;;;;;4952205;28;20147;-82
2023/05/11 12:13:47;;;;;;;4.68;2.00;;;;;;;;;;4967185;28;20047;-79
2023/05/11 12:16:15;;;;;;;2.15;1.77;;;;;;;;;;4951248;28;20261;-74
2023/05/11 12:18:50;;;;;;;6.93;2.30;;;;;;;;;;4948692;28;20407;-75
2023/05/11 12:21:18;;;;;;;6.50;2.08;;;;;;;;;;4947050;28;20070;-75
2023/05/11 12:23:54;;;;;;;3.55;2.05;;;;;;;;;;4968003;28;20134;-77
2023/05/11 12:26:22;;;;;;;9.57;2.40;;;;;;;;;;4940057;28;20094;-75
2023/05/11 12:29:07;;;;;;;4.93;2.22;;;;;;;;;;4957470;28;20048;-74
2023/05/11 12:31:43;;;;;;;5.38;2.28;;;;;;;;;;4946730;28;20093;-73
2023/05/11 12:34:14;;;;;;;6.72;2.05;;;;;;;;;;4963124;28;20149;-75
2023/05/11 12:36:41;;;;;;;2.85;1.73;;;;;;;;;;4952324;28;20700;-81
2023/05/11 12:39:15;;;;;;;6.53;1.70;;;;;;;;;;4968695;28;20552;-76
2023/05/11 12:41:42;;;;;;;5.10;2.00;;;;;;;;;;4947282;28;20042;-79
2023/05/11 12:44:08;;;;;;;6.30;2.45;;;;;;;;;;4932301;29;20074;-74
2023/05/11 12:46:36;;;;;;;4.55;2.08;;;;;;;;;;4947912;28;20117;-75
2023/05/11 12:49:03;;;;;;;3.42;1.90;;;;;;;;;;4948742;28;20533;-74
2023/05/11 12:51:48;;;;;;;7.20;2.22;;;;;;;;;;4965970;28;20515;-79
2023/05/11 12:54:31;;;;;;;6.53;2.05;;;;;;;;;;4955912;28;20094;-81
2023/05/11 12:56:59;;;;;;;5.60;2.03;;;;;;;;;;4945551;28;20047;-80
2023/05/11 12:59:25;;;;;;;3.38;1.90;;;;;;;;;;4928497;28;20050;-82
2023/05/11 13:01:52;;;;;;;4.10;1.80;;;;;;;;;;4958253;28;20050;-81
2023/05/11 13:04:26;;;;;;;3.20;2.05;;;;;;;;;;4970805;28;20047;-79
2023/05/11 13:06:53;;;;;;;4.03;1.70;;;;;;;;;;4953155;28;20127;-80
2023/05/11 13:09:20;;;;;;;7.78;1.88;;;;;;;;;;4944231;28;20479;-80
2023/05/11 13:11:47;;;;;;;4.47;1.50;;;;;;;;;;4948936;28;20158;-75
2023/05/11 13:14:15;;;;;;;4.43;1.38;;;;;;;;;;4965705;28;20090;-74
2023/05/11 13:16:51;;;;;;;4.95;1.50;;;;;;;;;;4949879;29;20049;-74
2023/05/11 13:19:27;;;;;;;2.83;1.65;;;;;;;;;;4951902;28;20497;-76
2023/05/11 13:21:54;;;;;;;6.65;1.60;;;;;;;;;;4952184;28;20051;-76
2023/05/11 13:24:21;;;;;;;3.78;1.67;;;;;;;;;;4953373;28;20460;-77
2023/05/11 13:26:48;;;;;;;1.50;1.30;;;;;;;;;;4961874;28;20043;-75
2023/05/11 13:29:15;;;;;;;9.50;1.50;;;;;;;;;;4950710;28;20054;-76
2023/05/11 13:31:45;;;;;;;4.53;1.70;;;;;;;;;;4952022;28;20125;-78
2023/05/11 13:34:11;;;;;;;7.18;1.40;;;;;;;;;;4944862;28;20101;-79
2023/05/11 13:36:38;;;;;;;3.38;1.55;;;;;;;;;;4977868;28;20054;-74
2023/05/11 13:39:05;;;;;;;11.35;1.83;;;;;;;;;;4955315;28;20055;-81
2023/05/11 13:41:32;;;;;;;9.57;1.98;;;;;;;;;;4956702;28;20047;-83
2023/05/11 13:43:59;;;;;;;7.22;2.20;;;;;;;;;;4948101;28;20439;-82
2023/05/11 13:46:25;;;;;;;7.53;1.63;;;;;;;;;;4970538;28;20040;-82
2023/05/11 13:48:53;;;;;;;2.90;2.05;;;;;;;;;;4956685;28;20134;-82
2023/05/11 13:51:20;;;;;;;6.88;2.15;;;;;;;;;;4953982;28;20122;-80
2023/05/11 13:53:47;;;;;;;3.10;1.70;;;;;;;;;;4954100;28;20475;-81
2023/05/11 13:56:14;;;;;;;4.82;1.85;;;;;;;;;;4970735;28;20397;-81
2023/05/11 13:58:40;;;;;;;3.58;1.88;;;;;;;;;;4953030;28;20053;-80
2023/05/11 14:01:07;;;;;;;3.97;1.85;;;;;;;;;;4971089;28;20061;-81
2023/05/11 14:03:34;;;;;;;3.50;1.58;;;;;;;;;;4980669;28;20035;-83
2023/05/11 14:06:01;;;;;;;5.82;1.73;;;;;;;;;;4990170;28;20125;-80
2023/05/11 14:08:28;;;;;;;9.70;1.88;;;;;;;;;;4973644;28;20042;-80
2023/05/11 14:10:54;;;;;;;4.60;1.60;;;;;;;;;;4975669;28;20511;-81
2023/05/11 14:13:22;;;;;;;3.97;1.60;;;;;;;;;;4975521;28;20558;-81
2023/05/11 14:15:50;;;;;;;4.78;1.80;;;;;;;;;;4991664;28;20101;-82
2023/05/11 14:18:16;;;;;;;5.25;1.70;;;;;;;;;;4958853;28;20098;-84
2023/05/11 14:20:43;;;;;;;3.30;1.60;;;;;;;;;;4977630;28;20043;-81
2023/05/11 14:23:09;;;;;;;3.90;1.52;;;;;;;;;;4975498;28;20071;-85
2023/05/11 14:25:36;;;;;;;4.07;1.40;;;;;;;;;;4991152;28;20043;-82
2023/05/11 14:28:03;;;;;;;3.30;1.45;;;;;;;;;;4974897;28;20046;-84
2023/05/11 14:30:30;;;;;;;3.35;1.67;;;;;;;;;;4945621;28;20302;-83
2023/05/11 14:32:56;;;;;;;2.95;1.60;;;;;;;;;;4940783;28;20066;-82
2023/05/11 14:35:23;;;;;;;3.38;1.58;;;;;;;;;;4940799;29;20051;-83
2023/05/11 14:37:49;;;;;;;7.47;1.60;;;;;;;;;;4956133;28;20127;-84